Time;durP1;ratioP1;P1;durP2;ratioP2;P2;SDS_P1;SDS_P2;PMS_P1;PMS_P2;Temp;Humidity;BMP_temperature;BMP_pressure;BME280_temperature;BME280_humidity;BME280_pressure;Samples;Min_cycle;Max_cycle;Signal;HPM_P1;HPM_P2
2023/05/26 00:02:08;;;;;;;5.60;3.97;;;;;;;;;;5021344;28;20195;-26
2023/05/26 00:04:35;;;;;;;4.57;3.70;;;;;;;;;;5031718;28;20237;-24
2023/05/26 00:07:02;;;;;;;5.13;3.60;;;;;;;;;;5031353;28;20215;-25
2023/05/26 00:09:30;;;;;;;5.33;3.73;;;;;;;;;;5028222;28;20209;-25
2023/05/26 00:11:57;;;;;;;4.43;4.00;;;;;;;;;;5023476;28;20210;-27
2023/05/26 00:14:25;;;;;;;4.23;3.23;;;;;;;;;;5029809;28;20213;-27
2023/05/26 00:16:53;;;;;;;4.57;3.70;;;;;;;;;;5025900;28;20571;-25
2023/05/26 00:19:21;;;;;;;5.13;3.97;;;;;;;;;;5032170;28;20203;-28
2023/05/26 00:21:48;;;;;;;4.00;3.63;;;;;;;;;;5031997;28;20206;-26
2023/05/26 00:24:15;;;;;;;4.03;3.57;;;;;;;;;;5025530;28;20207;-27
2023/05/26 00:26:42;;;;;;;5.83;3.73;;;;;;;;;;5026162;28;20214;-25
2023/05/26 00:29:09;;;;;;;4.30;3.50;;;;;;;;;;5032176;28;20198;-26
2023/05/26 00:31:37;;;;;;;4.97;4.00;;;;;;;;;;5016697;28;20211;-27
2023/05/26 00:34:05;;;;;;;5.07;4.30;;;;;;;;;;5026308;28;20209;-28
2023/05/26 00:36:32;;;;;;;6.07;3.93;;;;;;;;;;5029279;28;20230;-27
2023/05/26 00:38:59;;;;;;;6.27;3.97;;;;;;;;;;5029493;28;20203;-25
2023/05/26 00:41:26;;;;;;;3.50;3.20;;;;;;;;;;5022968;28;20207;-26
2023/05/26 00:43:53;;;;;;;4.20;3.80;;;;;;;;;;5027374;28;20198;-25
2023/05/26 00:46:21;;;;;;;5.27;3.83;;;;;;;;;;5021922;28;20222;-28
2023/05/26 00:48:49;;;;;;;4.00;3.60;;;;;;;;;;5028928;28;20199;-25
2023/05/26 00:51:16;;;;;;;3.93;3.63;;;;;;;;;;5029274;28;20195;-26
2023/05/26 00:53:44;;;;;;;4.33;3.93;;;;;;;;;;5026090;28;20561;-29
2023/05/26 00:56:12;;;;;;;5.53;3.53;;;;;;;;;;5015830;28;20230;-25
2023/05/26 00:58:39;;;;;;;4.00;3.60;;;;;;;;;;5025989;28;20191;-27
2023/05/26 01:01:07;;;;;;;3.77;3.40;;;;;;;;;;5019889;28;20199;-28
2023/05/26 01:03:35;;;;;;;5.30;3.93;;;;;;;;;;5023295;28;20246;-26
2023/05/26 01:06:03;;;;;;;6.10;3.93;;;;;;;;;;5027932;28;20273;-25
2023/05/26 01:08:30;;;;;;;6.13;3.83;;;;;;;;;;5028632;28;20211;-27
2023/05/26 01:11:01;;;;;;;4.83;3.70;;;;;;;;;;5023424;28;20206;-27
2023/05/26 01:13:31;;;;;;;5.50;3.77;;;;;;;;;;5027665;28;20217;-27
2023/05/26 01:16:00;;;;;;;4.87;3.73;;;;;;;;;;5022576;28;20229;-25
2023/05/26 01:18:29;;;;;;;4.77;4.10;;;;;;;;;;5024807;28;20206;-28
2023/05/26 01:20:59;;;;;;;3.67;3.37;;;;;;;;;;5032259;28;20203;-27
2023/05/26 01:23:56;;;;;;;4.20;3.80;;;;;;;;;;5029534;28;20216;-27
2023/05/26 01:26:33;;;;;;;8.53;3.77;;;;;;;;;;5026923;28;20218;-28
2023/05/26 01:29:05;;;;;;;6.93;3.63;;;;;;;;;;5024609;28;20194;-27
2023/05/26 01:31:33;;;;;;;4.83;3.87;;;;;;;;;;5023751;28;20207;-26
2023/05/26 01:34:00;;;;;;;5.40;3.90;;;;;;;;;;5030977;28;20201;-26
2023/05/26 01:36:28;;;;;;;5.50;3.63;;;;;;;;;;5031991;28;20222;-25
2023/05/26 01:38:56;;;;;;;4.80;4.23;;;;;;;;;;5029332;28;20210;-25
2023/05/26 01:41:26;;;;;;;5.27;4.30;;;;;;;;;;5018429;28;20211;-24
2023/05/26 01:43:57;;;;;;;6.37;3.93;;;;;;;;;;5029988;28;20566;-26
2023/05/26 01:46:27;;;;;;;4.60;3.33;;;;;;;;;;5023918;28;20227;-27
2023/05/26 01:48:57;;;;;;;5.70;3.83;;;;;;;;;;5031592;28;20211;-27
2023/05/26 01:51:25;;;;;;;4.37;3.73;;;;;;;;;;5032056;28;20202;-27
2023/05/26 01:53:54;;;;;;;5.33;3.50;;;;;;;;;;5025456;28;20200;-25
2023/05/26 01:56:23;;;;;;;6.27;4.40;;;;;;;;;;5021123;28;20424;-24
2023/05/26 01:58:51;;;;;;;4.60;3.90;;;;;;;;;;5031902;28;20199;-26
2023/05/26 02:01:35;;;;;;;5.10;3.80;;;;;;;;;;5021659;28;20207;-27
2023/05/26 02:04:02;;;;;;;4.20;3.80;;;;;;;;;;5022757;28;20222;-28
2023/05/26 02:06:29;;;;;;;4.83;3.97;;;;;;;;;;5031370;28;20214;-25
2023/05/26 02:08:57;;;;;;;4.17;3.73;;;;;;;;;;5027181;28;20664;-29
2023/05/26 02:11:24;;;;;;;4.30;3.73;;;;;;;;;;5029604;28;20207;-25
2023/05/26 02:13:52;;;;;;;4.93;3.77;;;;;;;;;;5027809;28;20294;-25
2023/05/26 02:16:21;;;;;;;4.67;3.60;;;;;;;;;;5021934;28;20249;-25
2023/05/26 02:18:50;;;;;;;4.93;3.60;;;;;;;;;;5029368;28;20203;-25
2023/05/26 02:21:17;;;;;;;5.20;3.90;;;;;;;;;;5031530;28;20199;-25
2023/05/26 02:23:44;;;;;;;5.47;3.80;;;;;;;;;;5026769;28;20209;-28
2023/05/26 02:26:11;;;;;;;4.47;4.07;;;;;;;;;;5028456;28;20221;-27
2023/05/26 02:28:38;;;;;;;4.00;3.50;;;;;;;;;;5030861;28;20199;-26
2023/05/26 02:31:06;;;;;;;4.87;3.60;;;;;;;;;;5025640;28;20204;-25
2023/05/26 02:33:33;;;;;;;4.87;3.67;;;;;;;;;;5029617;28;20222;-25
2023/05/26 02:36:02;;;;;;;4.13;3.73;;;;;;;;;;5030440;28;20218;-25
2023/05/26 02:38:29;;;;;;;4.63;3.93;;;;;;;;;;5030905;28;20592;-27
2023/05/26 02:40:56;;;;;;;5.47;3.97;;;;;;;;;;5014617;28;20191;-25
2023/05/26 02:43:23;;;;;;;4.60;3.90;;;;;;;;;;5025099;28;20202;-27
2023/05/26 02:45:51;;;;;;;6.60;3.80;;;;;;;;;;5024432;28;20219;-25
2023/05/26 02:48:18;;;;;;;5.13;4.30;;;;;;;;;;5026880;28;20253;-27
2023/05/26 02:50:45;;;;;;;6.73;4.13;;;;;;;;;;5030631;28;20202;-27
2023/05/26 02:53:15;;;;;;;4.60;3.93;;;;;;;;;;5026830;28;20207;-25
2023/05/26 02:55:42;;;;;;;4.77;4.00;;;;;;;;;;5017770;28;20227;-26
2023/05/26 02:58:10;;;;;;;4.97;3.87;;;;;;;;;;5030676;28;20201;-26
2023/05/26 03:00:38;;;;;;;4.50;4.10;;;;;;;;;;5031279;28;20509;-27
2023/05/26 03:03:05;;;;;;;4.30;3.90;;;;;;;;;;5029497;28;20515;-26
2023/05/26 03:05:32;;;;;;;4.53;3.07;;;;;;;;;;5029671;28;20230;-27
2023/05/26 03:07:59;;;;;;;4.53;3.73;;;;;;;;;;5010615;28;20196;-26
2023/05/26 03:10:28;;;;;;;5.37;4.03;;;;;;;;;;5017068;28;20214;-28
2023/05/26 03:12:55;;;;;;;6.20;4.10;;;;;;;;;;5028968;28;20191;-26
2023/05/26 03:15:22;;;;;;;4.90;4.07;;;;;;;;;;5018766;28;20226;-25
2023/05/26 03:17:50;;;;;;;5.87;4.10;;;;;;;;;;5019092;28;20231;-26
2023/05/26 03:20:17;;;;;;;4.50;4.10;;;;;;;;;;5029910;28;20191;-27
2023/05/26 03:22:44;;;;;;;3.90;3.50;;;;;;;;;;5030134;28;20198;-24
2023/05/26 03:25:11;;;;;;;4.43;3.40;;;;;;;;;;5019608;28;20278;-27
2023/05/26 03:27:40;;;;;;;6.27;4.27;;;;;;;;;;5026949;28;20199;-27
2023/05/26 03:30:08;;;;;;;5.37;4.20;;;;;;;;;;5030075;28;20209;-27
2023/05/26 03:32:35;;;;;;;4.40;3.80;;;;;;;;;;5014785;28;20653;-26
2023/05/26 03:35:02;;;;;;;6.03;4.20;;;;;;;;;;5029540;28;20209;-28
2023/05/26 03:37:29;;;;;;;6.57;4.30;;;;;;;;;;5030755;28;20222;-27
2023/05/26 03:39:56;;;;;;;4.67;4.10;;;;;;;;;;5021169;28;20198;-24
2023/05/26 03:42:23;;;;;;;5.27;3.73;;;;;;;;;;5027728;28;20210;-27
2023/05/26 03:44:52;;;;;;;6.00;4.00;;;;;;;;;;5023334;28;20207;-25
2023/05/26 03:47:20;;;;;;;4.97;4.07;;;;;;;;;;5023152;28;20229;-25
2023/05/26 03:49:47;;;;;;;4.97;3.93;;;;;;;;;;5030572;28;20664;-27
2023/05/26 03:52:14;;;;;;;5.87;3.87;;;;;;;;;;5032279;28;20672;-24
2023/05/26 03:54:41;;;;;;;4.00;3.47;;;;;;;;;;5023696;28;20195;-27
2023/05/26 03:57:08;;;;;;;5.23;3.80;;;;;;;;;;5017482;28;20218;-26
2023/05/26 03:59:35;;;;;;;6.47;4.10;;;;;;;;;;5028653;28;20675;-29
2023/05/26 04:02:04;;;;;;;5.03;4.20;;;;;;;;;;5026511;28;20202;-26
2023/05/26 04:04:31;;;;;;;4.20;3.80;;;;;;;;;;5031252;28;20309;-24
2023/05/26 04:06:58;;;;;;;5.93;5.00;;;;;;;;;;5032118;28;20218;-26
2023/05/26 04:09:26;;;;;;;5.37;4.20;;;;;;;;;;5028934;28;20218;-25
2023/05/26 04:11:53;;;;;;;8.23;4.10;;;;;;;;;;5031555;28;20203;-26
2023/05/26 04:14:20;;;;;;;6.27;3.87;;;;;;;;;;5025493;28;20199;-26
2023/05/26 04:16:48;;;;;;;5.67;4.27;;;;;;;;;;5019656;28;20227;-25
2023/05/26 04:19:16;;;;;;;5.80;4.30;;;;;;;;;;5031553;28;20289;-26
2023/05/26 04:21:44;;;;;;;5.73;3.93;;;;;;;;;;5031940;28;20198;-25
2023/05/26 04:24:11;;;;;;;4.73;3.97;;;;;;;;;;5031060;28;20199;-26
2023/05/26 04:26:38;;;;;;;10.37;5.37;;;;;;;;;;5021894;28;20318;-24
2023/05/26 04:29:05;;;;;;;3.63;3.30;;;;;;;;;;5031745;28;20202;-23
2023/05/26 04:31:32;;;;;;;5.07;3.90;;;;;;;;;;5019157;28;20218;-26
2023/05/26 04:34:00;;;;;;;4.50;4.10;;;;;;;;;;5023389;28;20217;-27
2023/05/26 04:36:29;;;;;;;5.00;4.30;;;;;;;;;;5029187;28;20234;-24
2023/05/26 04:38:57;;;;;;;6.77;4.80;;;;;;;;;;5021567;28;20252;-23
2023/05/26 04:41:24;;;;;;;6.30;4.50;;;;;;;;;;5018881;28;20199;-27
2023/05/26 04:43:52;;;;;;;5.27;4.67;;;;;;;;;;5023703;28;20202;-27
2023/05/26 04:46:19;;;;;;;6.13;4.60;;;;;;;;;;5021838;28;20237;-26
2023/05/26 04:48:47;;;;;;;6.70;5.40;;;;;;;;;;5029026;28;20218;-23
2023/05/26 04:51:14;;;;;;;4.77;4.30;;;;;;;;;;5031521;28;20199;-25
2023/05/26 04:53:42;;;;;;;6.33;4.07;;;;;;;;;;5030695;28;20209;-25
2023/05/26 04:56:09;;;;;;;5.30;4.80;;;;;;;;;;5019032;28;20215;-26
2023/05/26 04:58:37;;;;;;;7.83;4.87;;;;;;;;;;5035169;28;20218;-26
2023/05/26 05:01:04;;;;;;;6.73;4.87;;;;;;;;;;5028947;28;20195;-24
2023/05/26 05:03:34;;;;;;;6.70;5.03;;;;;;;;;;5024584;28;20222;-25
2023/05/26 05:06:01;;;;;;;7.33;4.60;;;;;;;;;;5120927;22;20233;-26
2023/05/26 05:08:28;;;;;;;7.57;5.17;;;;;;;;;;5052905;28;20209;-24
2023/05/26 05:10:56;;;;;;;5.80;4.63;;;;;;;;;;5048095;28;20202;-24
2023/05/26 05:13:23;;;;;;;6.30;4.63;;;;;;;;;;5046685;28;20206;-25
2023/05/26 05:15:51;;;;;;;7.03;4.80;;;;;;;;;;5032382;28;20223;-27
2023/05/26 05:18:18;;;;;;;7.53;4.77;;;;;;;;;;5026083;28;20230;-27
2023/05/26 05:20:45;;;;;;;6.63;5.27;;;;;;;;;;5032536;28;20209;-26
2023/05/26 05:23:12;;;;;;;6.40;5.13;;;;;;;;;;5031825;28;20217;-27
2023/05/26 05:25:39;;;;;;;4.93;4.43;;;;;;;;;;5018143;28;20230;-25
2023/05/26 05:28:08;;;;;;;8.23;5.17;;;;;;;;;;5031758;28;20203;-26
2023/05/26 05:30:35;;;;;;;6.30;5.13;;;;;;;;;;5027229;28;20211;-29
2023/05/26 05:33:02;;;;;;;7.83;4.80;;;;;;;;;;5029688;28;20210;-28
2023/05/26 05:35:29;;;;;;;10.37;5.27;;;;;;;;;;5032208;28;20223;-31
2023/05/26 05:37:57;;;;;;;6.17;5.17;;;;;;;;;;5026998;28;20233;-27
2023/05/26 05:40:24;;;;;;;6.60;5.50;;;;;;;;;;5030953;28;20252;-29
2023/05/26 05:42:52;;;;;;;8.50;4.73;;;;;;;;;;5030226;28;20288;-28
2023/05/26 05:45:21;;;;;;;6.93;5.10;;;;;;;;;;5030066;28;20223;-27
2023/05/26 05:47:48;;;;;;;7.33;4.90;;;;;;;;;;5022344;28;20210;-26
2023/05/26 05:50:15;;;;;;;9.30;5.33;;;;;;;;;;5030845;28;20206;-28
2023/05/26 05:52:42;;;;;;;6.47;5.57;;;;;;;;;;5030409;28;20214;-28
2023/05/26 05:55:10;;;;;;;8.17;5.67;;;;;;;;;;5022998;28;20202;-31
2023/05/26 05:57:37;;;;;;;6.60;5.20;;;;;;;;;;5031202;28;20211;-27
2023/05/26 06:00:04;;;;;;;5.87;4.77;;;;;;;;;;5034717;28;20208;-28
2023/05/26 06:02:33;;;;;;;7.90;5.13;;;;;;;;;;5026724;28;20206;-27
2023/05/26 06:05:00;;;;;;;9.53;5.20;;;;;;;;;;5032917;28;20195;-29
2023/05/26 06:07:27;;;;;;;7.57;5.57;;;;;;;;;;5031864;28;20215;-30
2023/05/26 06:09:54;;;;;;;9.90;6.47;;;;;;;;;;5022741;28;20218;-26
2023/05/26 06:12:21;;;;;;;9.93;5.70;;;;;;;;;;5030607;28;20206;-28
2023/05/26 06:14:48;;;;;;;8.77;5.90;;;;;;;;;;5033208;28;20210;-30
2023/05/26 06:17:15;;;;;;;8.90;5.33;;;;;;;;;;5024993;28;20219;-27
2023/05/26 06:19:44;;;;;;;9.03;5.70;;;;;;;;;;5029148;28;20202;-29
2023/05/26 06:22:11;;;;;;;9.17;5.40;;;;;;;;;;5025868;28;20203;-27
2023/05/26 06:24:38;;;;;;;9.70;5.37;;;;;;;;;;5014959;28;20199;-27
2023/05/26 06:27:05;;;;;;;6.10;5.37;;;;;;;;;;5030820;28;20233;-28
2023/05/26 06:29:32;;;;;;;7.60;5.10;;;;;;;;;;5031545;28;20199;-29
2023/05/26 06:31:59;;;;;;;7.77;5.57;;;;;;;;;;5017156;28;20202;-27
2023/05/26 06:34:26;;;;;;;8.83;5.60;;;;;;;;;;5030499;28;20205;-26
2023/05/26 06:36:55;;;;;;;13.37;5.70;;;;;;;;;;5031410;28;20230;-30
2023/05/26 06:39:23;;;;;;;8.07;5.20;;;;;;;;;;5030527;28;20273;-27
2023/05/26 06:41:50;;;;;;;9.33;5.47;;;;;;;;;;5022458;28;20290;-32
2023/05/26 06:44:17;;;;;;;8.67;4.87;;;;;;;;;;5027763;28;20203;-28
2023/05/26 06:46:45;;;;;;;8.20;5.13;;;;;;;;;;5023929;28;20254;-30
2023/05/26 06:49:12;;;;;;;7.47;5.70;;;;;;;;;;5028304;28;20200;-29
2023/05/26 06:51:39;;;;;;;6.03;5.43;;;;;;;;;;5029517;28;20192;-30
2023/05/26 06:54:08;;;;;;;8.47;5.50;;;;;;;;;;5023157;28;20278;-29
2023/05/26 06:56:35;;;;;;;9.10;5.67;;;;;;;;;;5024620;28;20223;-29
2023/05/26 06:59:02;;;;;;;9.03;5.70;;;;;;;;;;5025622;28;20225;-29
2023/05/26 07:01:29;;;;;;;8.00;5.13;;;;;;;;;;5025816;28;20212;-29
2023/05/26 07:03:56;;;;;;;7.20;5.50;;;;;;;;;;5028373;28;20236;-26
2023/05/26 07:06:23;;;;;;;10.47;5.60;;;;;;;;;;5023637;28;20234;-29
2023/05/26 07:08:50;;;;;;;9.27;5.40;;;;;;;;;;5025517;28;20202;-30
2023/05/26 07:11:19;;;;;;;8.93;5.00;;;;;;;;;;5029165;28;20197;-30
2023/05/26 07:13:46;;;;;;;8.43;5.30;;;;;;;;;;5030403;28;20206;-28
2023/05/26 07:16:13;;;;;;;9.47;4.90;;;;;;;;;;5022918;28;20222;-29
2023/05/26 07:18:40;;;;;;;7.50;5.23;;;;;;;;;;5020579;28;20218;-28
2023/05/26 07:21:07;;;;;;;9.20;4.93;;;;;;;;;;5022946;28;20202;-25
2023/05/26 07:23:34;;;;;;;7.20;5.03;;;;;;;;;;5030871;28;20194;-28
2023/05/26 07:26:01;;;;;;;8.00;4.85;;;;;;;;;;5030318;28;20228;-28
2023/05/26 07:28:30;;;;;;;6.32;5.03;;;;;;;;;;5020598;28;20210;-25
2023/05/26 07:30:57;;;;;;;7.75;5.22;;;;;;;;;;5023731;28;20201;-28
2023/05/26 07:33:24;;;;;;;6.93;4.80;;;;;;;;;;5028045;28;20206;-28
2023/05/26 07:35:51;;;;;;;5.88;4.57;;;;;;;;;;5027972;28;20222;-27
2023/05/26 07:38:18;;;;;;;7.57;5.10;;;;;;;;;;5018372;28;20227;-27
2023/05/26 07:40:45;;;;;;;5.40;3.95;;;;;;;;;;5025240;28;20203;-26
2023/05/26 07:43:13;;;;;;;9.48;5.05;;;;;;;;;;5017130;28;20209;-28
2023/05/26 07:45:41;;;;;;;8.23;4.22;;;;;;;;;;5026646;28;20235;-27
2023/05/26 07:48:08;;;;;;;7.25;4.32;;;;;;;;;;5027988;28;20201;-28
2023/05/26 07:50:36;;;;;;;8.82;4.70;;;;;;;;;;5030440;28;20214;-27
2023/05/26 07:53:03;;;;;;;9.38;4.78;;;;;;;;;;5033154;28;20195;-25
2023/05/26 07:55:31;;;;;;;6.85;4.68;;;;;;;;;;5024440;28;20238;-28
2023/05/26 07:57:58;;;;;;;7.97;4.88;;;;;;;;;;5016825;28;20218;-28
2023/05/26 08:00:25;;;;;;;6.72;4.80;;;;;;;;;;5023067;28;20194;-22
2023/05/26 08:02:54;;;;;;;5.93;4.60;;;;;;;;;;5019262;28;20219;-25
2023/05/26 08:05:21;;;;;;;7.65;4.85;;;;;;;;;;5026237;28;20233;-28
2023/05/26 08:07:48;;;;;;;8.13;5.00;;;;;;;;;;5017754;28;20294;-24
2023/05/26 08:10:15;;;;;;;8.52;5.43;;;;;;;;;;5022912;28;20202;-26
2023/05/26 08:12:43;;;;;;;7.00;4.68;;;;;;;;;;5022720;28;20198;-30
2023/05/26 08:15:13;;;;;;;8.48;5.22;;;;;;;;;;5025676;28;20264;-28
2023/05/26 08:17:40;;;;;;;10.10;5.13;;;;;;;;;;5018820;28;20223;-28
2023/05/26 08:20:10;;;;;;;7.80;4.88;;;;;;;;;;5021463;28;20202;-26
2023/05/26 08:22:38;;;;;;;7.60;4.68;;;;;;;;;;5014890;28;20211;-30
2023/05/26 08:25:06;;;;;;;6.80;4.32;;;;;;;;;;5014414;28;20223;-27
2023/05/26 08:27:33;;;;;;;5.95;4.57;;;;;;;;;;5024693;28;20198;-25
2023/05/26 08:30:00;;;;;;;7.82;4.47;;;;;;;;;;5031585;28;20202;-28
2023/05/26 08:32:27;;;;;;;8.27;5.05;;;;;;;;;;5018692;28;20291;-29
2023/05/26 08:34:54;;;;;;;7.70;4.88;;;;;;;;;;5025134;28;20206;-24
2023/05/26 08:37:23;;;;;;;6.03;4.97;;;;;;;;;;5030178;28;20230;-28
2023/05/26 08:39:50;;;;;;;6.80;4.68;;;;;;;;;;5027241;28;20215;-26
2023/05/26 08:42:19;;;;;;;8.90;5.25;;;;;;;;;;5026408;28;20202;-29
2023/05/26 08:44:47;;;;;;;8.90;5.00;;;;;;;;;;5030130;28;20526;-29
2023/05/26 08:47:14;;;;;;;7.43;5.28;;;;;;;;;;5025850;28;20220;-29
2023/05/26 08:49:47;;;;;;;6.35;4.35;;;;;;;;;;5030157;28;20197;-24
2023/05/26 08:52:16;;;;;;;7.55;4.57;;;;;;;;;;5031532;28;20187;-29
2023/05/26 08:54:45;;;;;;;7.13;4.90;;;;;;;;;;5025467;28;20210;-26
2023/05/26 08:57:13;;;;;;;8.93;5.53;;;;;;;;;;5025291;28;20222;-27
2023/05/26 08:59:41;;;;;;;5.47;4.35;;;;;;;;;;5026205;28;20230;-27
2023/05/26 09:02:09;;;;;;;8.73;5.20;;;;;;;;;;5020118;28;20252;-25
2023/05/26 09:04:37;;;;;;;5.30;4.60;;;;;;;;;;5020601;28;20208;-30
2023/05/26 09:07:06;;;;;;;9.73;5.13;;;;;;;;;;5028870;28;20289;-29
2023/05/26 09:09:33;;;;;;;7.20;4.63;;;;;;;;;;5028945;28;20207;-28
2023/05/26 09:12:02;;;;;;;7.90;4.30;;;;;;;;;;5027460;28;20209;-28
2023/05/26 09:14:29;;;;;;;7.05;4.43;;;;;;;;;;5022016;28;20208;-26
2023/05/26 09:17:00;;;;;;;5.97;4.15;;;;;;;;;;5025199;28;20226;-28
2023/05/26 09:19:27;;;;;;;5.82;4.63;;;;;;;;;;5029629;28;20226;-27
2023/05/26 09:21:54;;;;;;;7.25;4.18;;;;;;;;;;5029829;28;20207;-26
2023/05/26 09:24:23;;;;;;;8.98;4.80;;;;;;;;;;5022472;28;20214;-28
2023/05/26 09:26:51;;;;;;;6.63;4.63;;;;;;;;;;5015319;28;20223;-30
2023/05/26 09:29:19;;;;;;;7.47;4.18;;;;;;;;;;5029638;28;20201;-28
2023/05/26 09:31:47;;;;;;;4.75;4.13;;;;;;;;;;5014429;28;20202;-28
2023/05/26 09:34:15;;;;;;;7.88;4.50;;;;;;;;;;5023043;28;20201;-26
2023/05/26 09:36:42;;;;;;;8.38;4.43;;;;;;;;;;5024443;28;20244;-30
2023/05/26 09:39:10;;;;;;;8.43;4.03;;;;;;;;;;5027976;28;20218;-28
2023/05/26 09:41:38;;;;;;;6.03;4.47;;;;;;;;;;5029481;28;20205;-29
2023/05/26 09:44:08;;;;;;;7.78;4.43;;;;;;;;;;5022844;28;20212;-30
2023/05/26 09:46:37;;;;;;;9.82;4.25;;;;;;;;;;5019666;28;20219;-28
2023/05/26 09:49:08;;;;;;;5.45;3.75;;;;;;;;;;5020749;28;20207;-29
2023/05/26 09:51:35;;;;;;;5.18;4.10;;;;;;;;;;5015099;28;20210;-28
2023/05/26 09:54:02;;;;;;;5.43;4.32;;;;;;;;;;5020841;28;20286;-28
2023/05/26 09:56:32;;;;;;;5.30;3.97;;;;;;;;;;5028706;28;20272;-26
2023/05/26 09:59:01;;;;;;;6.25;4.28;;;;;;;;;;5028725;28;20214;-25
2023/05/26 10:01:29;;;;;;;5.70;4.65;;;;;;;;;;5022239;28;20203;-31
2023/05/26 10:03:57;;;;;;;8.07;4.27;;;;;;;;;;5031051;28;20215;-28
2023/05/26 10:06:25;;;;;;;4.77;3.77;;;;;;;;;;5024640;28;20227;-27
2023/05/26 10:08:55;;;;;;;9.52;4.40;;;;;;;;;;5028826;28;20198;-27
2023/05/26 10:11:23;;;;;;;7.87;4.30;;;;;;;;;;5021135;28;20285;-26
2023/05/26 10:13:50;;;;;;;4.00;3.70;;;;;;;;;;5025808;28;20210;-28
2023/05/26 10:16:17;;;;;;;7.80;4.20;;;;;;;;;;5025427;28;20214;-27
2023/05/26 10:18:44;;;;;;;7.27;4.07;;;;;;;;;;5024130;28;20252;-29
2023/05/26 10:21:14;;;;;;;6.38;4.55;;;;;;;;;;5028558;28;20198;-28
2023/05/26 10:23:43;;;;;;;7.07;4.43;;;;;;;;;;5026877;28;20301;-29
2023/05/26 10:26:14;;;;;;;8.40;4.90;;;;;;;;;;5016327;28;20218;-25
2023/05/26 10:28:45;;;;;;;6.82;4.00;;;;;;;;;;5027703;28;20205;-27
2023/05/26 10:31:12;;;;;;;6.55;4.38;;;;;;;;;;5017093;28;20269;-25
2023/05/26 10:33:40;;;;;;;5.78;4.15;;;;;;;;;;5023524;28;20201;-28
2023/05/26 10:36:08;;;;;;;8.57;4.75;;;;;;;;;;5028069;28;20225;-29
2023/05/26 10:38:38;;;;;;;7.30;4.30;;;;;;;;;;5024619;28;20223;-26
2023/05/26 10:41:11;;;;;;;8.23;4.40;;;;;;;;;;5022399;28;20190;-27
2023/05/26 10:43:42;;;;;;;9.93;4.57;;;;;;;;;;5028057;28;20203;-28
2023/05/26 10:46:09;;;;;;;5.45;3.78;;;;;;;;;;5014324;28;20225;-28
2023/05/26 10:48:37;;;;;;;4.50;3.90;;;;;;;;;;5028320;28;20570;-26
2023/05/26 10:51:09;;;;;;;7.67;3.90;;;;;;;;;;5030072;28;20384;-28
2023/05/26 10:53:43;;;;;;;8.52;4.65;;;;;;;;;;5030149;28;20206;-25
2023/05/26 10:56:12;;;;;;;10.65;4.75;;;;;;;;;;5018080;28;20229;-28
2023/05/26 10:58:40;;;;;;;5.57;4.40;;;;;;;;;;5017092;28;20222;-28
2023/05/26 11:01:10;;;;;;;8.77;4.40;;;;;;;;;;5021690;28;20199;-26
2023/05/26 11:03:37;;;;;;;8.43;4.37;;;;;;;;;;5025781;28;20210;-26
2023/05/26 11:06:05;;;;;;;6.07;4.50;;;;;;;;;;5029593;28;20222;-28
2023/05/26 11:08:37;;;;;;;6.47;4.63;;;;;;;;;;5028632;28;20203;-28
2023/05/26 11:11:06;;;;;;;8.18;4.40;;;;;;;;;;5019159;28;20198;-28
2023/05/26 11:13:40;;;;;;;8.93;3.93;;;;;;;;;;5025219;28;20218;-26
2023/05/26 11:16:24;;;;;;;6.07;4.38;;;;;;;;;;5012902;28;20218;-29
2023/05/26 11:18:52;;;;;;;7.88;4.57;;;;;;;;;;5023887;28;20229;-29
2023/05/26 11:21:19;;;;;;;6.63;4.57;;;;;;;;;;5027988;28;20205;-27
2023/05/26 11:23:47;;;;;;;7.28;5.00;;;;;;;;;;5016573;28;20512;-31
2023/05/26 11:26:17;;;;;;;7.30;4.27;;;;;;;;;;5016672;28;20222;-29
2023/05/26 11:28:57;;;;;;;7.40;4.55;;;;;;;;;;5020111;28;20224;-29
2023/05/26 11:31:25;;;;;;;6.68;4.18;;;;;;;;;;5021218;28;20210;-30
2023/05/26 11:33:52;;;;;;;8.35;4.30;;;;;;;;;;5022312;28;20457;-28
2023/05/26 11:36:20;;;;;;;7.45;4.47;;;;;;;;;;5021247;28;20230;-27
2023/05/26 11:38:48;;;;;;;6.25;4.07;;;;;;;;;;5021549;28;20246;-27
2023/05/26 11:41:17;;;;;;;6.03;4.68;;;;;;;;;;5018389;28;20198;-27
2023/05/26 11:43:46;;;;;;;8.43;4.15;;;;;;;;;;5022086;28;20214;-28
2023/05/26 11:46:15;;;;;;;6.07;4.60;;;;;;;;;;5023823;28;20225;-30
2023/05/26 11:48:43;;;;;;;6.50;3.95;;;;;;;;;;5029179;28;20198;-27
2023/05/26 11:51:11;;;;;;;6.30;3.78;;;;;;;;;;5026863;28;20203;-27
2023/05/26 11:53:39;;;;;;;5.22;4.00;;;;;;;;;;5018132;28;20212;-28
2023/05/26 11:56:07;;;;;;;9.13;4.85;;;;;;;;;;5018619;28;20226;-28
2023/05/26 11:58:36;;;;;;;6.30;3.50;;;;;;;;;;5028424;28;20206;-26
2023/05/26 12:01:04;;;;;;;9.32;4.20;;;;;;;;;;5015656;28;20517;-28
2023/05/26 12:03:33;;;;;;;5.15;3.95;;;;;;;;;;5020211;28;20218;-27
2023/05/26 12:06:16;;;;;;;7.13;4.15;;;;;;;;;;5022454;28;20264;-29
2023/05/26 12:08:46;;;;;;;5.65;4.22;;;;;;;;;;5009270;28;20199;-27
2023/05/26 12:11:14;;;;;;;5.97;3.70;;;;;;;;;;5015835;28;20204;-25
2023/05/26 12:13:43;;;;;;;5.25;3.63;;;;;;;;;;5014833;28;20204;-29
2023/05/26 12:16:21;;;;;;;5.55;4.10;;;;;;;;;;5012465;28;20230;-26
2023/05/26 12:18:48;;;;;;;5.80;4.57;;;;;;;;;;5015581;28;20207;-29
2023/05/26 12:23:51;;;;;;;9.18;4.20;;;;;;;;;;5107405;22;20226;-32
2023/05/26 12:26:18;;;;;;;6.80;4.20;;;;;;;;;;5033228;28;20230;-31
2023/05/26 12:28:47;;;;;;;4.85;3.90;;;;;;;;;;5007991;28;20400;-34
2023/05/26 12:31:14;;;;;;;5.35;3.83;;;;;;;;;;5007343;28;20210;-32
2023/05/26 12:33:41;;;;;;;7.15;4.35;;;;;;;;;;5017780;28;20440;-31
2023/05/26 12:36:09;;;;;;;5.97;4.13;;;;;;;;;;5000719;28;20223;-34
2023/05/26 12:38:42;;;;;;;7.20;4.00;;;;;;;;;;5024790;28;20210;-31
2023/05/26 12:41:09;;;;;;;5.75;4.28;;;;;;;;;;5030114;28;20204;-31
2023/05/26 12:43:37;;;;;;;5.30;4.47;;;;;;;;;;5025211;28;20456;-35
2023/05/26 12:46:05;;;;;;;6.40;3.63;;;;;;;;;;5010646;28;20230;-31
2023/05/26 12:48:32;;;;;;;6.43;4.50;;;;;;;;;;5018026;28;20215;-32
2023/05/26 12:51:01;;;;;;;5.95;4.05;;;;;;;;;;5032590;28;20230;-32
2023/05/26 12:53:28;;;;;;;5.75;3.83;;;;;;;;;;5019655;28;20208;-33
2023/05/26 12:55:56;;;;;;;6.00;4.10;;;;;;;;;;5011788;28;20224;-31
2023/05/26 12:58:23;;;;;;;5.38;4.10;;;;;;;;;;5017709;28;20203;-32
2023/05/26 13:00:50;;;;;;;8.13;4.50;;;;;;;;;;5010085;28;20660;-31
2023/05/26 13:03:19;;;;;;;5.38;3.97;;;;;;;;;;5010122;28;20209;-31
2023/05/26 13:05:49;;;;;;;9.27;3.92;;;;;;;;;;5021853;28;20227;-31
2023/05/26 13:08:16;;;;;;;10.90;4.05;;;;;;;;;;5025992;28;20254;-34
2023/05/26 13:10:44;;;;;;;8.85;4.32;;;;;;;;;;5005130;28;20203;-34
2023/05/26 13:13:12;;;;;;;8.55;4.00;;;;;;;;;;5020506;28;20203;-36
2023/05/26 13:15:42;;;;;;;6.55;4.00;;;;;;;;;;5008316;28;20292;-33
2023/05/26 13:18:09;;;;;;;7.10;3.58;;;;;;;;;;5011785;28;20200;-32
2023/05/26 13:20:38;;;;;;;6.15;3.92;;;;;;;;;;5015825;28;20228;-35
2023/05/26 13:23:05;;;;;;;5.75;3.78;;;;;;;;;;5016224;28;20217;-31
2023/05/26 13:25:32;;;;;;;6.60;4.10;;;;;;;;;;5006766;28;20221;-32
2023/05/26 13:27:59;;;;;;;6.43;3.90;;;;;;;;;;5014716;28;20629;-35
2023/05/26 13:30:27;;;;;;;7.13;4.20;;;;;;;;;;5013584;28;20208;-33
2023/05/26 13:32:55;;;;;;;7.47;4.18;;;;;;;;;;5010875;28;20210;-32
2023/05/26 13:35:22;;;;;;;5.47;3.78;;;;;;;;;;5014690;28;20249;-31
2023/05/26 13:37:51;;;;;;;4.47;3.60;;;;;;;;;;5015647;28;20662;-34
2023/05/26 13:40:19;;;;;;;6.65;3.90;;;;;;;;;;5013336;28;20230;-33
2023/05/26 13:42:46;;;;;;;6.53;4.07;;;;;;;;;;5014016;28;20197;-33
2023/05/26 13:45:14;;;;;;;4.30;3.90;;;;;;;;;;5029288;28;20193;-34
2023/05/26 13:47:41;;;;;;;4.70;3.65;;;;;;;;;;5007896;28;20289;-33
2023/05/26 13:50:09;;;;;;;6.07;4.55;;;;;;;;;;5035400;28;20718;-31
2023/05/26 13:52:36;;;;;;;9.60;4.70;;;;;;;;;;5035646;28;20214;-32
2023/05/26 13:55:05;;;;;;;6.43;3.85;;;;;;;;;;5029333;28;20210;-34
2023/05/26 13:57:32;;;;;;;4.18;3.58;;;;;;;;;;5019388;28;20239;-32
2023/05/26 13:59:59;;;;;;;5.07;4.07;;;;;;;;;;5024467;28;20218;-32
2023/05/26 14:02:26;;;;;;;6.00;3.78;;;;;;;;;;5005251;28;20208;-31
2023/05/26 14:04:53;;;;;;;6.78;4.20;;;;;;;;;;5024919;28;20710;-35
2023/05/26 14:07:20;;;;;;;6.60;4.07;;;;;;;;;;5034383;28;20232;-33
2023/05/26 14:09:47;;;;;;;6.95;3.70;;;;;;;;;;5032234;28;20203;-33
2023/05/26 14:12:17;;;;;;;4.72;3.28;;;;;;;;;;5006322;28;20238;-34
2023/05/26 14:14:44;;;;;;;5.68;3.88;;;;;;;;;;5020780;28;20211;-33
2023/05/26 14:17:11;;;;;;;10.60;3.90;;;;;;;;;;5006409;28;20260;-34
2023/05/26 14:19:38;;;;;;;4.57;3.90;;;;;;;;;;5021217;28;20252;-35
2023/05/26 14:22:05;;;;;;;7.65;3.63;;;;;;;;;;5015248;28;20823;-33
2023/05/26 14:24:33;;;;;;;4.55;3.95;;;;;;;;;;5011442;28;20283;-32
2023/05/26 14:27:01;;;;;;;5.85;3.55;;;;;;;;;;5019128;28;20224;-34
2023/05/26 14:29:29;;;;;;;6.03;3.60;;;;;;;;;;5026518;28;20291;-33
2023/05/26 14:31:56;;;;;;;5.75;4.47;;;;;;;;;;5020662;28;20206;-34
2023/05/26 14:34:23;;;;;;;7.15;3.90;;;;;;;;;;5017146;28;20209;-32
2023/05/26 14:36:51;;;;;;;5.93;3.67;;;;;;;;;;5014710;28;20223;-30
2023/05/26 14:39:18;;;;;;;8.05;3.75;;;;;;;;;;5009925;28;20205;-34
2023/05/26 14:41:45;;;;;;;4.65;3.67;;;;;;;;;;5004504;28;20226;-31
2023/05/26 14:44:12;;;;;;;5.15;3.80;;;;;;;;;;5013878;28;20209;-35
2023/05/26 14:46:41;;;;;;;8.07;3.90;;;;;;;;;;5001129;28;20238;-34
2023/05/26 14:49:08;;;;;;;7.45;4.22;;;;;;;;;;5029322;28;20291;-34
2023/05/26 14:51:36;;;;;;;6.25;3.80;;;;;;;;;;5031728;28;20200;-32